createdAt,value
2024-02-19T00:00:06.322Z,65.90
2024-02-19T00:03:03.424Z,59.50
2024-02-19T00:05:31.320Z,56.00
2024-02-19T00:07:59.465Z,48.50
2024-02-19T00:10:27.082Z,57.50
2024-02-19T00:12:54.739Z,61.70
2024-02-19T00:15:23.397Z,66.20
2024-02-19T00:17:51.511Z,56.80
2024-02-19T00:22:47.524Z,54.30
2024-02-19T00:25:16.720Z,57.20
2024-02-19T00:27:46.289Z,53.30
2024-02-19T00:30:17.480Z,58.40
2024-02-19T00:32:45.708Z,75.70
2024-02-19T00:37:40.873Z,70.70
2024-02-19T00:40:10.517Z,65.40
2024-02-19T00:42:38.761Z,56.10
2024-02-19T00:47:34.696Z,65.90
2024-02-19T00:50:03.242Z,65.00
2024-02-19T00:52:31.174Z,78.30
2024-02-19T00:54:59.302Z,66.70
2024-02-19T00:57:26.781Z,52.70
2024-02-19T00:59:55.367Z,53.40
2024-02-19T01:02:23.900Z,47.50
2024-02-19T01:04:55.795Z,50.60
2024-02-19T01:07:25.575Z,56.90
2024-02-19T01:09:53.534Z,56.70
2024-02-19T01:14:49.657Z,72.10
2024-02-19T01:17:18.672Z,61.60
2024-02-19T01:19:47.418Z,57.90
2024-02-19T01:22:15.972Z,55.70
2024-02-19T01:24:43.967Z,53.80
2024-02-19T01:27:12.661Z,50.40
2024-02-19T01:29:40.225Z,62.10
2024-02-19T01:32:07.999Z,62.70
2024-02-19T01:34:37.569Z,58.00
2024-02-19T01:37:05.433Z,60.70
2024-02-19T01:39:34.986Z,58.80
2024-02-19T01:42:04.171Z,55.60
2024-02-19T01:44:32.683Z,55.80
2024-02-19T01:47:00.979Z,55.40
2024-02-19T01:49:29.463Z,59.60
2024-02-19T01:51:57.542Z,62.80
2024-02-19T01:54:25.391Z,55.70
2024-02-19T01:56:53.703Z,59.00
2024-02-19T01:59:23.194Z,52.20
2024-02-19T02:01:51.217Z,53.80
2024-02-19T02:04:19.620Z,51.80
2024-02-19T02:06:48.567Z,47.30
2024-02-19T02:09:16.874Z,49.20
2024-02-19T02:11:44.200Z,52.10
2024-02-19T02:14:13.076Z,48.60
2024-02-19T02:16:40.701Z,37.80
2024-02-19T02:19:13.016Z,32.40
2024-02-19T02:21:42.166Z,40.30
2024-02-19T02:24:10.276Z,34.70
2024-02-19T02:26:42.476Z,39.10
2024-02-19T02:29:10.266Z,40.20
2024-02-19T02:31:39.392Z,41.60
2024-02-19T02:34:07.357Z,42.20
2024-02-19T02:36:36.318Z,38.20
2024-02-19T02:39:05.178Z,39.30
2024-02-19T02:41:33.310Z,37.00
2024-02-19T02:44:01.292Z,36.00
2024-02-19T02:46:29.687Z,38.00
2024-02-19T02:48:57.908Z,42.30
2024-02-19T02:51:26.540Z,40.40
2024-02-19T02:53:55.194Z,37.70
2024-02-19T02:56:24.787Z,39.00
2024-02-19T02:58:53.785Z,35.10
2024-02-19T03:01:27.076Z,41.40
2024-02-19T03:03:55.224Z,40.80
2024-02-19T03:06:23.173Z,38.50
2024-02-19T03:08:50.899Z,37.00
2024-02-19T03:11:18.760Z,32.80
2024-02-19T03:13:45.649Z,29.90
2024-02-19T03:16:18.247Z,28.00
2024-02-19T03:18:49.362Z,29.80
2024-02-19T03:21:18.554Z,28.40
2024-02-19T03:24:11.580Z,28.40
2024-02-19T03:29:12.401Z,24.40
2024-02-19T03:31:41.979Z,30.80
2024-02-19T03:34:10.121Z,29.80
2024-02-19T03:36:37.523Z,21.60
2024-02-19T03:39:05.082Z,31.60
2024-02-19T03:41:34.439Z,34.90
2024-02-19T03:44:02.792Z,36.90
2024-02-19T03:46:30.950Z,31.30
2024-02-19T03:48:59.239Z,28.30
2024-02-19T03:51:28.720Z,29.40
2024-02-19T03:53:56.649Z,25.50
2024-02-19T03:56:25.362Z,26.40
2024-02-19T03:58:53.908Z,28.90
2024-02-19T04:01:21.981Z,34.50
2024-02-19T04:03:50.144Z,28.20
2024-02-19T04:06:17.633Z,26.00
2024-02-19T04:08:45.047Z,25.00
2024-02-19T04:11:17.085Z,26.20
2024-02-19T04:13:45.461Z,31.40
2024-02-19T04:16:14.211Z,29.80
2024-02-19T04:21:09.609Z,28.90
2024-02-19T04:23:38.842Z,30.00
2024-02-19T04:26:06.859Z,29.40
2024-02-19T04:28:34.810Z,27.90
2024-02-19T04:33:31.951Z,34.10
2024-02-19T04:36:00.145Z,28.50
2024-02-19T04:38:28.022Z,28.20
2024-02-19T04:40:56.833Z,34.80
2024-02-19T04:43:24.652Z,30.30
2024-02-19T04:45:54.879Z,33.50
2024-02-19T04:48:22.961Z,35.60
2024-02-19T04:50:50.636Z,32.50
2024-02-19T04:53:20.116Z,32.60
2024-02-19T04:55:49.666Z,31.10
2024-02-19T04:58:17.818Z,35.80
2024-02-19T05:00:47.177Z,30.20
2024-02-19T05:03:17.916Z,34.30
2024-02-19T05:05:45.778Z,38.60
2024-02-19T05:08:13.381Z,38.80
2024-02-19T05:10:41.636Z,34.50
2024-02-19T05:13:09.582Z,37.30
2024-02-19T05:15:39.005Z,36.70
2024-02-19T05:18:07.016Z,33.00
2024-02-19T05:20:35.851Z,38.10
2024-02-19T05:23:05.924Z,36.20
2024-02-19T05:25:33.724Z,36.20
2024-02-19T05:28:03.596Z,38.20
2024-02-19T05:30:32.063Z,39.20
2024-02-19T05:32:59.256Z,31.40
2024-02-19T05:35:28.730Z,30.50
2024-02-19T05:37:58.317Z,35.10
2024-02-19T05:40:27.761Z,36.00
2024-02-19T05:42:55.770Z,34.40
2024-02-19T05:45:24.120Z,32.00
2024-02-19T05:47:52.429Z,29.20
2024-02-19T05:50:20.181Z,28.70
2024-02-19T05:52:48.497Z,23.50
2024-02-19T05:55:17.904Z,32.60
2024-02-19T05:57:46.060Z,29.60
2024-02-19T06:00:14.463Z,31.50
2024-02-19T06:02:43.579Z,29.80
2024-02-19T06:05:12.278Z,30.30
2024-02-19T06:07:42.297Z,34.70
2024-02-19T06:10:11.571Z,28.80
2024-02-19T06:12:40.165Z,28.80
2024-02-19T06:15:09.414Z,37.10
2024-02-19T06:17:37.192Z,30.30
2024-02-19T06:20:05.612Z,28.10
2024-02-19T06:22:33.581Z,35.00
2024-02-19T06:25:01.621Z,36.10
2024-02-19T06:27:29.910Z,31.80
2024-02-19T06:29:58.487Z,33.50
2024-02-19T06:32:26.614Z,33.00
2024-02-19T06:34:55.969Z,39.50
2024-02-19T06:37:24.822Z,39.70
2024-02-19T06:39:52.842Z,37.90
2024-02-19T06:42:21.993Z,34.60
2024-02-19T06:44:49.234Z,30.90
2024-02-19T06:47:17.082Z,32.50
2024-02-19T06:52:23.405Z,31.60
2024-02-19T06:54:52.592Z,30.60
2024-02-19T06:57:23.995Z,30.30
2024-02-19T07:00:10.598Z,32.30
2024-02-19T07:02:40.815Z,26.00
2024-02-19T07:05:09.808Z,34.20
2024-02-19T07:07:39.476Z,30.70
2024-02-19T07:10:12.478Z,31.70
2024-02-19T07:13:05.139Z,27.80
2024-02-19T07:15:40.461Z,27.60
2024-02-19T07:18:18.714Z,33.30
2024-02-19T07:20:59.689Z,33.80
2024-02-19T07:23:35.158Z,33.70
2024-02-19T07:26:30.398Z,37.20
2024-02-19T07:29:02.243Z,27.80
2024-02-19T07:31:31.000Z,37.20
2024-02-19T07:34:01.447Z,32.70
2024-02-19T07:36:29.488Z,35.20
2024-02-19T07:38:58.072Z,32.40
2024-02-19T07:41:30.914Z,36.70
2024-02-19T07:43:58.921Z,26.50
2024-02-19T07:46:26.747Z,39.90
2024-02-19T07:48:54.870Z,37.30
2024-02-19T07:51:24.017Z,32.50
2024-02-19T07:53:53.332Z,36.40
2024-02-19T07:56:28.188Z,33.20
2024-02-19T07:58:58.050Z,34.90
2024-02-19T08:01:27.053Z,35.40
2024-02-19T08:03:56.114Z,36.00
2024-02-19T08:06:25.616Z,36.20
2024-02-19T08:08:54.073Z,24.80
2024-02-19T08:11:31.470Z,36.10
2024-02-19T08:13:58.848Z,37.30
2024-02-19T08:16:28.765Z,35.30
2024-02-19T08:18:56.406Z,36.00
2024-02-19T08:21:34.407Z,32.00
2024-02-19T08:24:11.550Z,28.70
2024-02-19T08:26:51.799Z,26.70
2024-02-19T08:29:23.085Z,33.00
2024-02-19T08:31:53.981Z,38.70
2024-02-19T08:34:55.900Z,30.00
2024-02-19T08:40:41.038Z,33.70
2024-02-19T08:43:17.420Z,33.20
2024-02-19T08:45:51.142Z,36.00
2024-02-19T08:48:23.500Z,34.10
2024-02-19T08:50:59.824Z,35.30
2024-02-19T08:53:30.220Z,31.90
2024-02-19T08:55:59.542Z,29.90
2024-02-19T08:58:31.999Z,31.30
2024-02-19T09:01:02.078Z,36.10
2024-02-19T09:03:31.699Z,31.00
2024-02-19T09:06:17.493Z,31.90
2024-02-19T09:08:52.833Z,33.90
2024-02-19T09:11:21.589Z,33.50
2024-02-19T09:13:50.339Z,33.70
2024-02-19T09:16:18.548Z,37.50
2024-02-19T09:18:48.981Z,31.90
2024-02-19T09:21:16.411Z,35.80
2024-02-19T09:23:49.379Z,35.30
2024-02-19T09:26:22.184Z,29.30
2024-02-19T09:28:52.389Z,32.30
2024-02-19T09:31:25.763Z,34.30
2024-02-19T09:34:00.780Z,33.10
2024-02-19T09:36:38.005Z,33.10
2024-02-19T09:39:07.458Z,32.90
2024-02-19T09:41:50.496Z,34.40
2024-02-19T09:44:20.198Z,31.30
2024-02-19T09:46:59.198Z,38.20
2024-02-19T09:49:29.288Z,33.60
2024-02-19T09:52:00.609Z,33.50
2024-02-19T09:54:29.413Z,38.30
2024-02-19T09:57:06.080Z,33.60
2024-02-19T09:59:34.726Z,33.60
2024-02-19T10:02:02.441Z,28.20
2024-02-19T10:04:35.390Z,32.30
2024-02-19T10:07:09.169Z,33.50
2024-02-19T10:09:37.427Z,30.60
2024-02-19T10:12:10.038Z,35.00
2024-02-19T10:14:42.701Z,36.90
2024-02-19T10:17:13.068Z,34.30
2024-02-19T10:19:43.809Z,32.30
2024-02-19T10:22:13.176Z,31.80
2024-02-19T10:24:45.080Z,31.10
2024-02-19T10:27:12.675Z,30.90
2024-02-19T10:29:40.004Z,33.40
2024-02-19T10:32:07.874Z,28.70
2024-02-19T10:34:36.318Z,28.00
2024-02-19T10:37:06.113Z,31.70
2024-02-19T10:39:35.053Z,23.90
2024-02-19T10:42:04.911Z,27.30
2024-02-19T10:44:35.767Z,29.80
2024-02-19T10:47:04.807Z,27.30
2024-02-19T10:49:33.647Z,23.70
2024-02-19T10:54:32.340Z,20.00
2024-02-19T10:57:09.975Z,18.30
2024-02-19T10:59:41.423Z,19.80
2024-02-19T11:02:24.190Z,16.60
2024-02-19T11:04:55.284Z,17.30
2024-02-19T11:07:34.076Z,16.20
2024-02-19T11:10:05.255Z,14.20
2024-02-19T11:12:35.139Z,14.40
2024-02-19T11:15:15.004Z,15.40
2024-02-19T11:17:47.510Z,17.80
2024-02-19T11:20:25.686Z,16.20
2024-02-19T11:22:59.659Z,16.30
2024-02-19T11:25:34.022Z,16.00
2024-02-19T11:28:06.026Z,17.30
2024-02-19T11:30:37.148Z,15.60
2024-02-19T11:33:13.523Z,16.90
2024-02-19T11:35:47.608Z,16.10
2024-02-19T11:38:33.707Z,14.90
2024-02-19T11:41:07.821Z,14.60
2024-02-19T11:43:39.644Z,16.70
2024-02-19T11:46:11.090Z,12.40
2024-02-19T11:48:42.602Z,17.40
2024-02-19T11:51:12.941Z,12.70
2024-02-19T11:53:44.286Z,14.90
2024-02-19T11:56:20.402Z,15.20
2024-02-19T11:58:55.891Z,18.80
2024-02-19T12:01:28.115Z,16.20
2024-02-19T12:03:58.477Z,18.40
2024-02-19T12:06:30.786Z,15.20
2024-02-19T12:09:05.359Z,11.30
2024-02-19T12:11:42.437Z,13.60
2024-02-19T12:14:18.183Z,14.40
2024-02-19T12:16:48.020Z,13.30
2024-02-19T12:19:18.737Z,13.80
2024-02-19T12:21:56.404Z,11.20
2024-02-19T12:24:28.033Z,12.30
2024-02-19T12:26:57.622Z,11.50
2024-02-19T12:29:27.744Z,12.90
2024-02-19T12:31:57.689Z,13.60
2024-02-19T12:34:29.335Z,12.70
2024-02-19T12:37:00.629Z,13.40
2024-02-19T12:39:32.650Z,8.00
2024-02-19T12:42:03.782Z,12.40
2024-02-19T12:44:37.687Z,11.80
2024-02-19T12:47:07.421Z,11.30
2024-02-19T12:49:40.668Z,8.20
2024-02-19T12:52:15.711Z,7.50
2024-02-19T12:54:48.976Z,8.50
2024-02-19T12:57:27.427Z,10.20
2024-02-19T13:00:09.394Z,9.70
2024-02-19T13:02:38.617Z,7.60
2024-02-19T13:05:15.631Z,10.10
2024-02-19T13:07:50.944Z,8.00
2024-02-19T13:10:25.028Z,7.40
2024-02-19T13:12:58.020Z,8.70
2024-02-19T13:15:31.137Z,7.10
2024-02-19T13:18:01.146Z,7.10
2024-02-19T13:20:37.842Z,8.90
2024-02-19T13:25:41.604Z,7.30
2024-02-19T13:28:13.964Z,8.00
2024-02-19T13:30:44.215Z,7.90
2024-02-19T13:33:19.755Z,7.00
2024-02-19T13:35:52.831Z,6.80
2024-02-19T13:38:30.435Z,7.10
2024-02-19T13:41:03.977Z,6.90
2024-02-19T13:43:34.058Z,7.40
2024-02-19T13:46:08.245Z,5.80
2024-02-19T13:48:37.596Z,7.30
2024-02-19T13:51:06.860Z,6.30
2024-02-19T13:53:38.718Z,8.00
2024-02-19T13:56:08.773Z,7.50
2024-02-19T13:58:37.626Z,7.60
2024-02-19T14:01:06.790Z,7.30
2024-02-19T14:03:42.856Z,6.40
2024-02-19T14:06:16.636Z,7.50
2024-02-19T14:08:50.782Z,7.00
2024-02-19T14:11:27.801Z,8.40
2024-02-19T14:14:02.338Z,10.70
2024-02-19T14:16:41.762Z,7.90
2024-02-19T14:19:13.561Z,9.70
2024-02-19T14:21:44.981Z,9.20
2024-02-19T14:24:17.249Z,8.80
2024-02-19T14:26:47.043Z,10.10
2024-02-19T14:29:17.838Z,9.80
2024-02-19T14:31:53.124Z,8.60
2024-02-19T14:34:27.119Z,10.10
2024-02-19T14:37:02.584Z,6.60
2024-02-19T14:39:33.664Z,9.10
2024-02-19T14:42:10.771Z,12.50
2024-02-19T14:44:43.390Z,8.00
2024-02-19T14:47:43.496Z,9.50
2024-02-19T14:52:52.474Z,9.10
2024-02-19T14:55:23.546Z,14.50
2024-02-19T14:57:56.529Z,18.20
2024-02-19T15:00:24.133Z,13.00
2024-02-19T15:02:56.050Z,9.80
2024-02-19T15:05:25.993Z,12.40
2024-02-19T15:07:55.801Z,13.90
2024-02-19T15:10:27.533Z,10.20
2024-02-19T15:12:56.342Z,13.30
2024-02-19T15:15:25.006Z,12.40
2024-02-19T15:17:53.009Z,13.20
2024-02-19T15:20:22.372Z,15.00
2024-02-19T15:22:50.798Z,12.90
2024-02-19T15:25:19.635Z,11.20
2024-02-19T15:27:48.452Z,8.90
2024-02-19T15:30:17.018Z,11.50
2024-02-19T15:32:44.874Z,12.30
2024-02-19T15:35:13.142Z,13.80
2024-02-19T15:37:41.171Z,10.50
2024-02-19T15:40:10.159Z,12.20
2024-02-19T15:42:38.034Z,13.90
2024-02-19T15:45:07.230Z,15.80
2024-02-19T15:47:35.135Z,11.90
2024-02-19T15:50:06.808Z,11.70
2024-02-19T15:52:35.949Z,11.90
2024-02-19T15:55:05.077Z,14.20
2024-02-19T15:57:32.759Z,15.60
2024-02-19T16:00:02.469Z,13.60
2024-02-19T16:02:34.293Z,15.90
2024-02-19T16:05:01.860Z,16.10
2024-02-19T16:07:30.520Z,13.90
2024-02-19T16:09:59.205Z,19.30
2024-02-19T16:12:28.336Z,16.70
2024-02-19T16:14:56.755Z,13.20
2024-02-19T16:17:24.788Z,14.90
2024-02-19T16:19:54.232Z,13.90
2024-02-19T16:22:23.174Z,19.60
2024-02-19T16:24:51.071Z,21.60
2024-02-19T16:27:18.968Z,17.80
2024-02-19T16:29:46.302Z,26.90
2024-02-19T16:32:17.839Z,26.40
2024-02-19T16:34:45.251Z,17.60
2024-02-19T16:37:13.632Z,14.80
2024-02-19T16:39:46.685Z,10.30
2024-02-19T16:42:14.065Z,16.80
2024-02-19T16:44:42.036Z,16.80
2024-02-19T16:47:10.056Z,22.20
2024-02-19T16:49:37.594Z,21.50
2024-02-19T16:52:05.101Z,26.30
2024-02-19T16:54:32.992Z,19.00
2024-02-19T16:57:01.705Z,30.10
2024-02-19T16:59:29.508Z,21.10
2024-02-19T17:01:57.696Z,21.00
2024-02-19T17:04:25.474Z,20.40
2024-02-19T17:06:55.287Z,17.70
2024-02-19T17:09:23.656Z,15.10
2024-02-19T17:11:51.329Z,18.00
2024-02-19T17:14:19.941Z,16.70
2024-02-19T17:16:52.036Z,21.70
2024-02-19T17:19:21.362Z,18.30
2024-02-19T17:21:50.427Z,15.10
2024-02-19T17:24:17.584Z,18.40
2024-02-19T17:26:46.228Z,19.60
2024-02-19T17:29:14.127Z,25.50
2024-02-19T17:31:43.269Z,21.20
2024-02-19T17:34:12.318Z,16.70
2024-02-19T17:36:42.484Z,19.30
2024-02-19T17:39:12.526Z,22.20
2024-02-19T17:41:41.295Z,119.70
2024-02-19T17:44:11.361Z,147.10
2024-02-19T17:46:38.464Z,71.60
2024-02-19T17:49:11.171Z,50.80
2024-02-19T17:51:38.356Z,57.30
2024-02-19T17:54:09.898Z,41.10
2024-02-19T17:56:40.834Z,37.80
2024-02-19T17:59:10.823Z,34.80
2024-02-19T18:01:39.661Z,40.50
2024-02-19T18:04:08.149Z,41.40
2024-02-19T18:06:37.233Z,43.60
2024-02-19T18:09:05.027Z,31.00
2024-02-19T18:11:34.035Z,30.70
2024-02-19T18:14:01.690Z,32.00
2024-02-19T18:16:30.719Z,35.90
2024-02-19T18:19:00.558Z,34.30
2024-02-19T18:21:29.194Z,32.20
2024-02-19T18:23:58.763Z,26.10
2024-02-19T18:26:28.358Z,26.30
2024-02-19T18:28:58.162Z,22.80
2024-02-19T18:31:29.280Z,29.20
2024-02-19T18:33:58.077Z,26.90
2024-02-19T18:36:27.106Z,22.50
2024-02-19T18:38:55.006Z,21.50
2024-02-19T18:41:24.792Z,22.20
2024-02-19T18:43:52.823Z,27.10
2024-02-19T18:46:22.494Z,31.00
2024-02-19T18:49:01.675Z,28.00
2024-02-19T18:51:29.580Z,27.60
2024-02-19T18:53:57.164Z,27.90
2024-02-19T18:56:26.772Z,31.10
2024-02-19T18:58:55.173Z,26.80
2024-02-19T19:01:22.968Z,29.90
2024-02-19T19:03:50.808Z,31.50
2024-02-19T19:06:18.486Z,38.10
2024-02-19T19:08:46.696Z,30.40
2024-02-19T19:11:14.785Z,26.60
2024-02-19T19:13:44.573Z,35.60
2024-02-19T19:16:12.918Z,33.40
2024-02-19T19:18:41.133Z,28.10
2024-02-19T19:23:37.675Z,26.90
2024-02-19T19:26:06.188Z,17.40
2024-02-19T19:28:33.936Z,19.30
2024-02-19T19:31:02.625Z,14.70
2024-02-19T19:33:31.055Z,12.70
2024-02-19T19:35:59.428Z,21.80
2024-02-19T19:40:57.846Z,30.90
2024-02-19T19:43:26.984Z,35.10
2024-02-19T19:45:57.210Z,29.00
2024-02-19T19:48:28.978Z,34.00
2024-02-19T19:50:57.691Z,27.90
2024-02-19T19:53:27.064Z,24.60
2024-02-19T19:55:56.276Z,26.40
2024-02-19T19:58:31.868Z,28.40
2024-02-19T20:01:00.659Z,24.60
2024-02-19T20:05:59.407Z,22.00
2024-02-19T20:08:27.361Z,30.10
2024-02-19T20:10:56.318Z,25.80
2024-02-19T20:13:24.151Z,23.90
2024-02-19T20:15:53.768Z,28.20
2024-02-19T20:18:29.062Z,30.20
2024-02-19T20:20:57.230Z,25.10
2024-02-19T20:23:26.986Z,26.20
2024-02-19T20:25:57.682Z,25.60
2024-02-19T20:28:25.258Z,26.50
2024-02-19T20:30:54.613Z,28.60
2024-02-19T20:33:22.900Z,24.10
2024-02-19T20:35:50.376Z,25.00
2024-02-19T20:38:18.261Z,23.00
2024-02-19T20:40:45.810Z,26.70
2024-02-19T20:43:13.457Z,30.00
2024-02-19T20:45:42.116Z,35.60
2024-02-19T20:48:10.905Z,33.40
2024-02-19T20:53:10.158Z,27.60
2024-02-19T20:55:38.072Z,28.60
2024-02-19T20:58:07.483Z,29.70
2024-02-19T21:00:36.148Z,24.90
2024-02-19T21:03:04.013Z,29.20
2024-02-19T21:05:32.873Z,23.60
2024-02-19T21:08:00.851Z,27.50
2024-02-19T21:10:28.899Z,25.40
2024-02-19T21:15:28.105Z,19.90
2024-02-19T21:17:56.011Z,23.30
2024-02-19T21:20:24.063Z,23.50
2024-02-19T21:22:52.289Z,44.80
2024-02-19T21:25:20.325Z,17.60
2024-02-19T21:27:49.318Z,37.60
2024-02-19T21:30:16.542Z,32.80
2024-02-19T21:32:46.764Z,30.30
2024-02-19T21:35:18.326Z,26.70
2024-02-19T21:37:48.387Z,28.00
2024-02-19T21:40:17.894Z,24.80
2024-02-19T21:45:14.564Z,34.40
2024-02-19T21:50:11.505Z,36.60
2024-02-19T21:52:40.794Z,27.20
2024-02-19T21:55:09.399Z,34.80
2024-02-19T22:00:09.052Z,34.40
2024-02-19T22:02:36.608Z,31.30
2024-02-19T22:05:05.736Z,36.80
2024-02-19T22:07:34.725Z,36.70
2024-02-19T22:12:32.963Z,32.00
2024-02-19T22:15:01.966Z,36.70
2024-02-19T22:17:30.377Z,35.30
2024-02-19T22:19:58.658Z,36.80
2024-02-19T22:24:55.986Z,39.40
2024-02-19T22:27:23.877Z,45.70
2024-02-19T22:29:51.764Z,37.50
2024-02-19T22:32:20.359Z,39.10
2024-02-19T22:34:47.991Z,49.80
2024-02-19T22:37:16.822Z,47.30
2024-02-19T22:39:45.209Z,51.50
2024-02-19T22:42:14.329Z,36.90
2024-02-19T22:44:43.785Z,37.70
2024-02-19T22:47:11.865Z,41.00
2024-02-19T22:49:40.356Z,33.90
2024-02-19T22:52:10.026Z,35.60
2024-02-19T22:54:44.141Z,31.70
2024-02-19T22:57:12.303Z,30.90
2024-02-19T22:59:50.933Z,30.90
2024-02-19T23:02:19.297Z,28.20
2024-02-19T23:04:48.554Z,28.40
2024-02-19T23:07:18.023Z,26.70
2024-02-19T23:09:48.537Z,22.10
2024-02-19T23:12:16.897Z,26.10
2024-02-19T23:14:44.861Z,31.60
2024-02-19T23:17:12.833Z,26.80
2024-02-19T23:19:40.414Z,26.10
2024-02-19T23:22:08.350Z,31.80
2024-02-19T23:24:36.486Z,42.80
2024-02-19T23:27:05.192Z,39.70
2024-02-19T23:29:34.024Z,38.20
2024-02-19T23:32:01.429Z,29.50
2024-02-19T23:34:30.921Z,31.00
2024-02-19T23:37:01.213Z,37.10
2024-02-19T23:39:28.911Z,43.90
2024-02-19T23:41:57.710Z,40.40
2024-02-19T23:44:27.073Z,42.50
2024-02-19T23:46:54.664Z,33.50
2024-02-19T23:49:23.163Z,32.90
2024-02-19T23:54:21.326Z,40.10
2024-02-19T23:56:48.909Z,36.00
2024-02-19T23:59:16.321Z,36.90
